sensor_id;sensor_type;location;lat;lon;timestamp;pressure;altitude;pressure_sealevel;temperature;humidity
24858;BME280;12935;50.782;6.074;2022-07-04T00:01:50;99947.13;;;16.03;100.00
24858;BME280;12935;50.782;6.074;2022-07-04T00:04:15;99954.88;;;16.08;100.00
24858;BME280;12935;50.782;6.074;2022-07-04T00:06:41;99943.03;;;16.11;100.00
24858;BME280;12935;50.782;6.074;2022-07-04T00:09:06;99944.53;;;16.16;100.00
24858;BME280;12935;50.782;6.074;2022-07-04T00:11:31;99936.69;;;16.14;100.00
24858;BME280;12935;50.782;6.074;2022-07-04T00:13:57;99939.91;;;16.09;100.00
24858;BME280;12935;50.782;6.074;2022-07-04T00:16:22;99940.88;;;15.99;100.00
24858;BME280;12935;50.782;6.074;2022-07-04T00:18:47;99938.47;;;16.01;100.00
24858;BME280;12935;50.782;6.074;2022-07-04T00:21:12;99940.19;;;15.92;100.00
24858;BME280;12935;50.782;6.074;2022-07-04T00:23:38;99935.09;;;15.90;100.00
24858;BME280;12935;50.782;6.074;2022-07-04T00:26:03;99931.59;;;15.90;100.00
24858;BME280;12935;50.782;6.074;2022-07-04T00:28:28;99930.19;;;15.78;100.00
24858;BME280;12935;50.782;6.074;2022-07-04T00:30:54;99927.44;;;15.78;100.00
24858;BME280;12935;50.782;6.074;2022-07-04T00:33:19;99926.38;;;15.72;100.00
24858;BME280;12935;50.782;6.074;2022-07-04T00:35:44;99932.53;;;15.79;100.00
24858;BME280;12935;50.782;6.074;2022-07-04T00:38:09;99927.38;;;15.82;100.00
24858;BME280;12935;50.782;6.074;2022-07-04T00:40:35;99911.44;;;15.69;100.00
24858;BME280;12935;50.782;6.074;2022-07-04T00:43:02;99921.22;;;15.74;100.00
24858;BME280;12935;50.782;6.074;2022-07-04T00:45:28;99924.03;;;15.70;100.00
24858;BME280;12935;50.782;6.074;2022-07-04T00:47:53;99921.31;;;15.67;100.00
24858;BME280;12935;50.782;6.074;2022-07-04T00:50:18;99916.88;;;15.46;100.00
24858;BME280;12935;50.782;6.074;2022-07-04T00:52:44;99913.72;;;15.48;100.00
24858;BME280;12935;50.782;6.074;2022-07-04T00:55:09;99914.94;;;15.43;100.00
24858;BME280;12935;50.782;6.074;2022-07-04T00:57:35;99909.97;;;15.34;100.00
24858;BME280;12935;50.782;6.074;2022-07-04T01:00:00;99924.69;;;15.51;100.00
24858;BME280;12935;50.782;6.074;2022-07-04T01:02:25;99904.31;;;15.45;100.00
24858;BME280;12935;50.782;6.074;2022-07-04T01:04:51;99911.38;;;15.46;100.00
24858;BME280;12935;50.782;6.074;2022-07-04T01:07:16;99910.59;;;15.45;100.00
24858;BME280;12935;50.782;6.074;2022-07-04T01:09:42;99911.31;;;15.50;100.00
24858;BME280;12935;50.782;6.074;2022-07-04T01:12:08;99915.81;;;15.40;100.00
24858;BME280;12935;50.782;6.074;2022-07-04T01:14:37;99910.03;;;15.31;100.00
24858;BME280;12935;50.782;6.074;2022-07-04T01:17:02;99910.50;;;15.26;100.00
24858;BME280;12935;50.782;6.074;2022-07-04T01:19:28;99905.06;;;15.22;100.00
24858;BME280;12935;50.782;6.074;2022-07-04T01:21:53;99908.41;;;15.33;100.00
24858;BME280;12935;50.782;6.074;2022-07-04T01:24:18;99922.97;;;15.34;100.00
24858;BME280;12935;50.782;6.074;2022-07-04T01:26:44;99908.09;;;15.28;100.00
24858;BME280;12935;50.782;6.074;2022-07-04T01:29:09;99915.13;;;15.32;100.00
24858;BME280;12935;50.782;6.074;2022-07-04T01:31:34;99910.50;;;15.26;100.00
24858;BME280;12935;50.782;6.074;2022-07-04T01:34:00;99914.38;;;15.28;100.00
24858;BME280;12935;50.782;6.074;2022-07-04T01:36:25;99915.16;;;15.29;100.00
24858;BME280;12935;50.782;6.074;2022-07-04T01:38:50;99910.50;;;15.26;100.00
24858;BME280;12935;50.782;6.074;2022-07-04T01:41:15;99919.97;;;15.25;100.00
24858;BME280;12935;50.782;6.074;2022-07-04T01:43:41;99919.69;;;15.16;100.00
24858;BME280;12935;50.782;6.074;2022-07-04T01:46:06;99925.56;;;15.18;100.00
24858;BME280;12935;50.782;6.074;2022-07-04T01:48:31;99924.81;;;15.14;100.00
24858;BME280;12935;50.782;6.074;2022-07-04T01:50:56;99924.09;;;15.09;100.00
24858;BME280;12935;50.782;6.074;2022-07-04T01:53:22;99921.84;;;15.01;100.00
24858;BME280;12935;50.782;6.074;2022-07-04T01:55:47;99918.81;;;14.92;100.00
24858;BME280;12935;50.782;6.074;2022-07-04T01:58:12;99929.31;;;15.00;100.00
24858;BME280;12935;50.782;6.074;2022-07-04T02:00:38;99929.66;;;15.06;100.00
24858;BME280;12935;50.782;6.074;2022-07-04T02:03:21;99922.72;;;14.94;100.00
24858;BME280;12935;50.782;6.074;2022-07-04T02:05:47;99907.91;;;14.85;100.00
24858;BME280;12935;50.782;6.074;2022-07-04T02:08:12;99927.75;;;14.99;100.00
24858;BME280;12935;50.782;6.074;2022-07-04T02:10:37;99920.03;;;14.91;100.00
24858;BME280;12935;50.782;6.074;2022-07-04T02:13:03;99924.69;;;14.94;100.00
24858;BME280;12935;50.782;6.074;2022-07-04T02:15:33;99923.50;;;14.95;100.00
24858;BME280;12935;50.782;6.074;2022-07-04T02:17:59;99922.72;;;14.94;100.00
24858;BME280;12935;50.782;6.074;2022-07-04T02:20:25;99924.03;;;14.83;100.00
24858;BME280;12935;50.782;6.074;2022-07-04T02:22:51;99929.13;;;14.84;100.00
24858;BME280;12935;50.782;6.074;2022-07-04T02:25:17;99927.56;;;14.83;100.00
24858;BME280;12935;50.782;6.074;2022-07-04T02:27:42;99935.38;;;14.88;100.00
24858;BME280;12935;50.782;6.074;2022-07-04T02:30:08;99923.66;;;14.81;100.00
24858;BME280;12935;50.782;6.074;2022-07-04T02:32:34;99937.16;;;14.71;100.00
24858;BME280;12935;50.782;6.074;2022-07-04T02:34:59;99933.25;;;14.69;100.00
24858;BME280;12935;50.782;6.074;2022-07-04T02:37:25;99930.50;;;14.69;100.00
24858;BME280;12935;50.782;6.074;2022-07-04T02:39:50;99945.66;;;14.81;100.00
24858;BME280;12935;50.782;6.074;2022-07-04T02:42:15;99934.66;;;14.81;100.00
24858;BME280;12935;50.782;6.074;2022-07-04T02:44:40;99947.63;;;14.80;100.00
24858;BME280;12935;50.782;6.074;2022-07-04T02:47:06;99948.41;;;14.81;100.00
24858;BME280;12935;50.782;6.074;2022-07-04T02:49:32;99940.28;;;14.73;100.00
24858;BME280;12935;50.782;6.074;2022-07-04T02:51:57;99943.47;;;14.68;100.00
24858;BME280;12935;50.782;6.074;2022-07-04T02:54:22;99952.59;;;14.62;100.00
24858;BME280;12935;50.782;6.074;2022-07-04T02:56:47;99928.69;;;14.55;100.00
24858;BME280;12935;50.782;6.074;2022-07-04T02:59:13;99956.81;;;14.70;100.00
24858;BME280;12935;50.782;6.074;2022-07-04T03:01:38;99953.44;;;14.55;100.00
24858;BME280;12935;50.782;6.074;2022-07-04T03:04:04;99952.78;;;14.44;100.00
24858;BME280;12935;50.782;6.074;2022-07-04T03:06:29;99958.66;;;14.46;100.00
24858;BME280;12935;50.782;6.074;2022-07-04T03:08:55;99963.75;;;14.48;100.00
24858;BME280;12935;50.782;6.074;2022-07-04T03:11:20;99969.72;;;14.35;100.00
24858;BME280;12935;50.782;6.074;2022-07-04T03:13:46;99975.59;;;14.34;100.00
24858;BME280;12935;50.782;6.074;2022-07-04T03:16:11;99975.97;;;14.36;100.00
24858;BME280;12935;50.782;6.074;2022-07-04T03:18:37;99986.19;;;14.35;100.00
24858;BME280;12935;50.782;6.074;2022-07-04T03:21:02;99973.34;;;14.25;100.00
24858;BME280;12935;50.782;6.074;2022-07-04T03:23:31;99983.16;;;14.26;100.00
24858;BME280;12935;50.782;6.074;2022-07-04T03:25:57;99978.50;;;14.20;100.00
24858;BME280;12935;50.782;6.074;2022-07-04T03:28:22;99979.97;;;14.31;100.00
24858;BME280;12935;50.782;6.074;2022-07-04T03:30:47;99983.16;;;14.26;100.00
24858;BME280;12935;50.782;6.074;2022-07-04T03:33:13;99986.00;;;14.16;100.00
24858;BME280;12935;50.782;6.074;2022-07-04T03:35:38;99983.59;;;14.18;100.00
24858;BME280;12935;50.782;6.074;2022-07-04T03:38:03;99982.41;;;14.22;100.00
24858;BME280;12935;50.782;6.074;2022-07-04T03:40:29;99989.03;;;14.28;100.00
24858;BME280;12935;50.782;6.074;2022-07-04T03:42:57;99977.28;;;14.24;100.00
24858;BME280;12935;50.782;6.074;2022-07-04T03:45:23;99983.13;;;14.30;100.00
24858;BME280;12935;50.782;6.074;2022-07-04T03:47:49;99978.75;;;14.32;100.00
24858;BME280;12935;50.782;6.074;2022-07-04T03:50:14;99989.72;;;14.39;100.00
24858;BME280;12935;50.782;6.074;2022-07-04T03:52:39;99982.75;;;14.28;100.00
24858;BME280;12935;50.782;6.074;2022-07-04T03:55:05;99985.41;;;14.35;100.00
24858;BME280;12935;50.782;6.074;2022-07-04T03:57:31;99972.44;;;14.35;100.00
24858;BME280;12935;50.782;6.074;2022-07-04T03:59:56;99979.50;;;14.36;100.00
24858;BME280;12935;50.782;6.074;2022-07-04T04:02:21;99976.38;;;14.34;100.00
24858;BME280;12935;50.782;6.074;2022-07-04T04:04:47;99980.28;;;14.37;100.00
24858;BME280;12935;50.782;6.074;2022-07-04T04:07:30;99990.19;;;14.31;100.00
24858;BME280;12935;50.782;6.074;2022-07-04T04:09:56;99972.84;;;14.34;100.00
24858;BME280;12935;50.782;6.074;2022-07-04T04:12:21;99990.88;;;14.46;100.00
24858;BME280;12935;50.782;6.074;2022-07-04T04:14:46;99985.31;;;14.49;100.00
24858;BME280;12935;50.782;6.074;2022-07-04T04:17:12;99988.53;;;14.41;100.00
24858;BME280;12935;50.782;6.074;2022-07-04T04:19:37;99980.00;;;14.28;100.00
24858;BME280;12935;50.782;6.074;2022-07-04T04:22:02;99991.66;;;14.39;100.00
24858;BME280;12935;50.782;6.074;2022-07-04T04:24:28;99993.63;;;14.46;100.00
24858;BME280;12935;50.782;6.074;2022-07-04T04:26:53;99991.25;;;14.48;100.00
24858;BME280;12935;50.782;6.074;2022-07-04T04:29:18;99988.50;;;14.48;100.00
24858;BME280;12935;50.782;6.074;2022-07-04T04:31:44;99999.03;;;14.53;100.00
24858;BME280;12935;50.782;6.074;2022-07-04T04:34:09;99990.31;;;14.61;100.00
24858;BME280;12935;50.782;6.074;2022-07-04T04:36:34;99989.06;;;14.66;100.00
24858;BME280;12935;50.782;6.074;2022-07-04T04:39:00;100000.78;;;14.73;100.00
24858;BME280;12935;50.782;6.074;2022-07-04T04:41:25;99994.41;;;14.80;100.00
24858;BME280;12935;50.782;6.074;2022-07-04T04:43:51;99992.38;;;14.88;100.00
24858;BME280;12935;50.782;6.074;2022-07-04T04:46:16;99999.00;;;14.94;100.00
24858;BME280;12935;50.782;6.074;2022-07-04T04:48:41;100000.09;;;15.00;100.00
24858;BME280;12935;50.782;6.074;2022-07-04T04:51:06;99984.75;;;14.99;100.00
24858;BME280;12935;50.782;6.074;2022-07-04T04:53:32;99996.44;;;15.10;100.00
24858;BME280;12935;50.782;6.074;2022-07-04T04:55:57;100000.03;;;15.07;100.00
24858;BME280;12935;50.782;6.074;2022-07-04T04:58:23;99993.38;;;15.04;100.00
24858;BME280;12935;50.782;6.074;2022-07-04T05:00:48;99994.28;;;14.94;100.00
24858;BME280;12935;50.782;6.074;2022-07-04T05:03:15;99991.88;;;14.96;100.00
24858;BME280;12935;50.782;6.074;2022-07-04T05:05:41;99992.22;;;15.02;100.00
24858;BME280;12935;50.782;6.074;2022-07-04T05:08:07;100002.31;;;15.12;100.00
24858;BME280;12935;50.782;6.074;2022-07-04T05:10:32;99990.75;;;15.24;100.00
24858;BME280;12935;50.782;6.074;2022-07-04T05:12:57;99991.44;;;15.32;100.00
24858;BME280;12935;50.782;6.074;2022-07-04T05:15:22;100006.75;;;15.33;100.00
24858;BME280;12935;50.782;6.074;2022-07-04T05:17:48;100007.59;;;15.30;100.00
24858;BME280;12935;50.782;6.074;2022-07-04T05:20:13;99997.09;;;15.21;100.00
24858;BME280;12935;50.782;6.074;2022-07-04T05:22:39;100014.09;;;15.43;100.00
24858;BME280;12935;50.782;6.074;2022-07-04T05:25:05;100012.41;;;15.56;100.00
24858;BME280;12935;50.782;6.074;2022-07-04T05:27:30;100003.56;;;15.68;100.00
24858;BME280;12935;50.782;6.074;2022-07-04T05:29:56;100007.56;;;15.64;100.00
24858;BME280;12935;50.782;6.074;2022-07-04T05:32:22;100012.44;;;15.79;100.00
24858;BME280;12935;50.782;6.074;2022-07-04T05:34:47;100018.06;;;15.99;100.00
24858;BME280;12935;50.782;6.074;2022-07-04T05:37:12;100013.56;;;16.09;100.00
24858;BME280;12935;50.782;6.074;2022-07-04T05:39:38;100007.53;;;16.18;100.00
24858;BME280;12935;50.782;6.074;2022-07-04T05:42:03;100013.16;;;16.34;100.00
24858;BME280;12935;50.782;6.074;2022-07-04T05:44:28;99998.81;;;16.42;100.00
24858;BME280;12935;50.782;6.074;2022-07-04T05:46:54;100005.28;;;16.56;100.00
24858;BME280;12935;50.782;6.074;2022-07-04T05:49:19;99999.28;;;16.61;100.00
24858;BME280;12935;50.782;6.074;2022-07-04T05:51:44;99988.06;;;16.71;99.55
24858;BME280;12935;50.782;6.074;2022-07-04T05:54:10;99992.97;;;16.83;97.96
24858;BME280;12935;50.782;6.074;2022-07-04T05:56:35;99991.13;;;16.97;96.70
24858;BME280;12935;50.782;6.074;2022-07-04T05:59:02;99990.81;;;16.71;100.00
24858;BME280;12935;50.782;6.074;2022-07-04T06:01:28;99987.38;;;16.67;97.81
24858;BME280;12935;50.782;6.074;2022-07-04T06:03:53;99985.75;;;16.90;96.64
24858;BME280;12935;50.782;6.074;2022-07-04T06:06:18;99990.56;;;17.05;94.63
24858;BME280;12935;50.782;6.074;2022-07-04T06:08:43;99985.81;;;17.06;94.44
24858;BME280;12935;50.782;6.074;2022-07-04T06:11:09;99979.69;;;16.98;95.27
24858;BME280;12935;50.782;6.074;2022-07-04T06:13:34;99984.25;;;17.05;95.37
24858;BME280;12935;50.782;6.074;2022-07-04T06:15:59;99989.66;;;16.92;94.37
24858;BME280;12935;50.782;6.074;2022-07-04T06:18:25;99977.81;;;16.92;94.27
24858;BME280;12935;50.782;6.074;2022-07-04T06:20:50;99989.22;;;17.13;93.38
24858;BME280;12935;50.782;6.074;2022-07-04T06:23:16;99989.09;;;17.37;91.80
24858;BME280;12935;50.782;6.074;2022-07-04T06:25:41;99988.38;;;17.52;89.14
24858;BME280;12935;50.782;6.074;2022-07-04T06:28:06;99977.66;;;17.54;88.93
24858;BME280;12935;50.782;6.074;2022-07-04T06:30:31;99990.34;;;17.52;87.76
24858;BME280;12935;50.782;6.074;2022-07-04T06:32:57;99988.78;;;17.51;88.41
24858;BME280;12935;50.782;6.074;2022-07-04T06:35:30;99989.94;;;17.53;88.42
24858;BME280;12935;50.782;6.074;2022-07-04T06:38:13;99988.88;;;17.47;88.27
24858;BME280;12935;50.782;6.074;2022-07-04T06:40:39;99990.22;;;17.59;86.27
24858;BME280;12935;50.782;6.074;2022-07-04T06:43:05;99990.13;;;17.63;85.31
24858;BME280;12935;50.782;6.074;2022-07-04T06:45:31;99985.19;;;17.54;86.56
24858;BME280;12935;50.782;6.074;2022-07-04T06:47:56;99975.50;;;17.46;87.39
24858;BME280;12935;50.782;6.074;2022-07-04T06:50:22;99992.41;;;17.68;85.67
24858;BME280;12935;50.782;6.074;2022-07-04T06:52:47;99993.88;;;17.72;85.48
24858;BME280;12935;50.782;6.074;2022-07-04T06:55:13;99999.34;;;17.56;84.38
24858;BME280;12935;50.782;6.074;2022-07-04T06:57:39;99990.72;;;17.54;84.88
24858;BME280;12935;50.782;6.074;2022-07-04T07:00:06;99990.34;;;17.52;85.10
24858;BME280;12935;50.782;6.074;2022-07-04T07:02:33;99982.91;;;17.69;85.68
24858;BME280;12935;50.782;6.074;2022-07-04T07:04:59;99986.03;;;17.51;83.57
24858;BME280;12935;50.782;6.074;2022-07-04T07:07:24;99983.56;;;17.57;83.04
24858;BME280;12935;50.782;6.074;2022-07-04T07:09:51;99971.41;;;17.70;83.29
24858;BME280;12935;50.782;6.074;2022-07-04T07:12:16;99974.34;;;17.96;81.88
24858;BME280;12935;50.782;6.074;2022-07-04T07:14:42;99976.19;;;18.02;79.79
24858;BME280;12935;50.782;6.074;2022-07-04T07:17:07;99987.09;;;18.09;80.29
24858;BME280;12935;50.782;6.074;2022-07-04T07:19:33;99990.50;;;17.97;79.13
24858;BME280;12935;50.782;6.074;2022-07-04T07:21:58;99983.63;;;17.89;79.07
24858;BME280;12935;50.782;6.074;2022-07-04T07:24:24;99985.53;;;17.92;79.84
24858;BME280;12935;50.782;6.074;2022-07-04T07:26:51;99989.56;;;17.87;79.81
24858;BME280;12935;50.782;6.074;2022-07-04T07:29:16;99991.06;;;17.92;81.20
24858;BME280;12935;50.782;6.074;2022-07-04T07:31:41;99981.78;;;18.15;80.71
24858;BME280;12935;50.782;6.074;2022-07-04T07:34:07;99997.78;;;18.23;79.43
24858;BME280;12935;50.782;6.074;2022-07-04T07:36:32;99994.59;;;18.25;79.05
24858;BME280;12935;50.782;6.074;2022-07-04T07:38:57;99995.84;;;18.53;78.83
24858;BME280;12935;50.782;6.074;2022-07-04T07:41:23;100002.69;;;18.48;78.00
24858;BME280;12935;50.782;6.074;2022-07-04T07:43:48;100002.34;;;18.30;77.29
24858;BME280;12935;50.782;6.074;2022-07-04T07:46:13;100003.38;;;18.52;77.69
24858;BME280;12935;50.782;6.074;2022-07-04T07:48:38;100003.09;;;18.63;77.38
24858;BME280;12935;50.782;6.074;2022-07-04T07:51:04;100010.63;;;18.63;77.60
24858;BME280;12935;50.782;6.074;2022-07-04T07:53:29;100003.97;;;18.89;76.80
24858;BME280;12935;50.782;6.074;2022-07-04T07:55:54;100005.44;;;18.93;73.71
24858;BME280;12935;50.782;6.074;2022-07-04T07:58:20;100012.28;;;18.89;74.37
24858;BME280;12935;50.782;6.074;2022-07-04T08:00:46;100014.06;;;18.83;74.41
24858;BME280;12935;50.782;6.074;2022-07-04T08:03:12;100012.78;;;19.00;72.67
24858;BME280;12935;50.782;6.074;2022-07-04T08:05:56;100011.13;;;19.03;73.00
24858;BME280;12935;50.782;6.074;2022-07-04T08:08:21;100020.25;;;19.16;73.05
24858;BME280;12935;50.782;6.074;2022-07-04T08:10:49;100012.75;;;19.29;70.37
24858;BME280;12935;50.782;6.074;2022-07-04T08:13:14;100015.84;;;19.31;72.60
24858;BME280;12935;50.782;6.074;2022-07-04T08:15:39;100020.19;;;19.45;73.25
24858;BME280;12935;50.782;6.074;2022-07-04T08:18:05;100015.28;;;19.65;71.79
24858;BME280;12935;50.782;6.074;2022-07-04T08:20:30;100015.53;;;19.42;69.00
24858;BME280;12935;50.782;6.074;2022-07-04T08:22:56;100016.19;;;18.91;69.14
24858;BME280;12935;50.782;6.074;2022-07-04T08:25:21;100005.81;;;19.08;69.98
24858;BME280;12935;50.782;6.074;2022-07-04T08:27:47;100015.19;;;19.27;70.03
24858;BME280;12935;50.782;6.074;2022-07-04T08:30:12;100006.72;;;19.59;69.74
24858;BME280;12935;50.782;6.074;2022-07-04T08:32:37;100006.63;;;19.76;68.88
24858;BME280;12935;50.782;6.074;2022-07-04T08:35:03;100008.28;;;19.99;68.28
24858;BME280;12935;50.782;6.074;2022-07-04T08:37:29;100006.91;;;20.03;68.76
24858;BME280;12935;50.782;6.074;2022-07-04T08:39:54;100008.69;;;20.22;67.70
24858;BME280;12935;50.782;6.074;2022-07-04T08:42:21;100009.75;;;20.50;67.60
24858;BME280;12935;50.782;6.074;2022-07-04T08:44:53;100008.13;;;20.75;65.49
24858;BME280;12935;50.782;6.074;2022-07-04T08:47:22;100015.84;;;20.80;63.94
24858;BME280;12935;50.782;6.074;2022-07-04T08:50:11;100007.78;;;20.94;61.24
24858;BME280;12935;50.782;6.074;2022-07-04T08:52:39;100012.97;;;21.05;60.62
24858;BME280;12935;50.782;6.074;2022-07-04T08:55:07;100015.34;;;20.94;61.13
24858;BME280;12935;50.782;6.074;2022-07-04T08:57:51;100016.84;;;20.86;60.19
24858;BME280;12935;50.782;6.074;2022-07-04T09:00:36;100020.19;;;20.81;60.16
24858;BME280;12935;50.782;6.074;2022-07-04T09:03:02;100020.53;;;20.48;59.50
24858;BME280;12935;50.782;6.074;2022-07-04T09:05:30;100016.84;;;20.51;60.59
24858;BME280;12935;50.782;6.074;2022-07-04T09:07:57;100020.16;;;20.93;60.43
24858;BME280;12935;50.782;6.074;2022-07-04T09:10:23;100015.63;;;21.30;56.70
24858;BME280;12935;50.782;6.074;2022-07-04T09:12:48;100013.03;;;21.36;55.36
24858;BME280;12935;50.782;6.074;2022-07-04T09:15:15;100014.31;;;21.00;55.61
24858;BME280;12935;50.782;6.074;2022-07-04T09:17:40;100012.13;;;21.39;55.12
24858;BME280;12935;50.782;6.074;2022-07-04T09:20:14;100013.16;;;21.54;56.37
24858;BME280;12935;50.782;6.074;2022-07-04T09:22:40;100011.03;;;21.67;55.64
24858;BME280;12935;50.782;6.074;2022-07-04T09:25:06;100012.06;;;21.30;56.98
24858;BME280;12935;50.782;6.074;2022-07-04T09:27:37;100007.97;;;20.78;57.75
24858;BME280;12935;50.782;6.074;2022-07-04T09:30:04;100011.22;;;20.29;58.86
24858;BME280;12935;50.782;6.074;2022-07-04T09:32:40;99997.34;;;20.42;58.84
24858;BME280;12935;50.782;6.074;2022-07-04T09:35:08;99983.63;;;21.04;57.41
24858;BME280;12935;50.782;6.074;2022-07-04T09:37:42;99986.84;;;21.46;56.68
24858;BME280;12935;50.782;6.074;2022-07-04T09:40:20;99982.13;;;21.65;55.03
24858;BME280;12935;50.782;6.074;2022-07-04T09:42:46;99989.00;;;21.82;53.66
24858;BME280;12935;50.782;6.074;2022-07-04T09:45:11;99992.44;;;21.95;52.98
24858;BME280;12935;50.782;6.074;2022-07-04T09:47:39;99983.38;;;22.13;52.64
24858;BME280;12935;50.782;6.074;2022-07-04T09:50:10;99973.94;;;22.11;53.05
24858;BME280;12935;50.782;6.074;2022-07-04T09:55:25;99993.59;;;22.16;53.76
24858;BME280;12935;50.782;6.074;2022-07-04T09:57:52;99993.50;;;22.47;51.69
24858;BME280;12935;50.782;6.074;2022-07-04T10:00:29;99988.69;;;22.75;49.93
24858;BME280;12935;50.782;6.074;2022-07-04T10:02:56;100000.63;;;22.66;48.53
24858;BME280;12935;50.782;6.074;2022-07-04T10:05:26;99986.69;;;22.66;50.92
24858;BME280;12935;50.782;6.074;2022-07-04T10:07:56;99987.41;;;22.21;51.37
24858;BME280;12935;50.782;6.074;2022-07-04T10:10:37;99987.75;;;22.32;51.62
24858;BME280;12935;50.782;6.074;2022-07-04T10:13:08;99985.78;;;22.88;51.17
24858;BME280;12935;50.782;6.074;2022-07-04T10:15:35;99980.88;;;23.34;52.21
24858;BME280;12935;50.782;6.074;2022-07-04T10:18:02;99979.09;;;22.76;51.43
24858;BME280;12935;50.782;6.074;2022-07-04T10:20:28;99971.00;;;22.05;51.75
24858;BME280;12935;50.782;6.074;2022-07-04T10:22:53;99981.16;;;21.59;53.94
24858;BME280;12935;50.782;6.074;2022-07-04T10:25:19;99967.41;;;21.55;55.14
24858;BME280;12935;50.782;6.074;2022-07-04T10:27:45;99971.66;;;22.18;52.87
24858;BME280;12935;50.782;6.074;2022-07-04T10:30:26;99977.44;;;22.79;50.31
24858;BME280;12935;50.782;6.074;2022-07-04T10:32:55;99969.25;;;23.35;51.48
24858;BME280;12935;50.782;6.074;2022-07-04T10:38:11;99954.41;;;24.04;47.75
24858;BME280;12935;50.782;6.074;2022-07-04T10:48:31;99956.66;;;24.77;47.25
24858;BME280;12935;50.782;6.074;2022-07-04T10:51:06;99958.81;;;25.27;44.33
24858;BME280;12935;50.782;6.074;2022-07-04T10:53:33;99959.41;;;25.31;42.75
24858;BME280;12935;50.782;6.074;2022-07-04T10:58:43;99962.84;;;25.40;43.79
24858;BME280;12935;50.782;6.074;2022-07-04T11:01:12;99950.63;;;26.08;44.13
24858;BME280;12935;50.782;6.074;2022-07-04T11:03:49;99942.84;;;26.17;42.98
24858;BME280;12935;50.782;6.074;2022-07-04T11:19:58;99953.31;;;26.58;39.32
24858;BME280;12935;50.782;6.074;2022-07-04T11:22:24;99956.81;;;26.78;41.21
24858;BME280;12935;50.782;6.074;2022-07-04T11:24:49;99952.25;;;25.94;40.56
24858;BME280;12935;50.782;6.074;2022-07-04T11:27:15;99959.19;;;25.34;42.70
24858;BME280;12935;50.782;6.074;2022-07-04T11:29:54;99947.28;;;25.54;43.29
24858;BME280;12935;50.782;6.074;2022-07-04T11:32:20;99943.09;;;25.29;43.23
24858;BME280;12935;50.782;6.074;2022-07-04T11:34:46;99942.63;;;25.80;42.26
24858;BME280;12935;50.782;6.074;2022-07-04T11:37:12;99930.88;;;26.17;39.92
24858;BME280;12935;50.782;6.074;2022-07-04T11:39:37;99934.47;;;26.38;37.78
24858;BME280;12935;50.782;6.074;2022-07-04T11:42:03;99938.38;;;26.46;37.29
24858;BME280;12935;50.782;6.074;2022-07-04T11:44:47;99936.59;;;26.43;37.71
24858;BME280;12935;50.782;6.074;2022-07-04T11:47:38;99936.88;;;26.71;38.38
24858;BME280;12935;50.782;6.074;2022-07-04T11:50:14;99932.09;;;26.77;37.62
24858;BME280;12935;50.782;6.074;2022-07-04T11:52:41;99938.66;;;26.94;36.91
24858;BME280;12935;50.782;6.074;2022-07-04T11:55:09;99934.44;;;27.04;37.07
24858;BME280;12935;50.782;6.074;2022-07-04T11:57:37;99931.81;;;28.06;37.16
24858;BME280;12935;50.782;6.074;2022-07-04T12:00:14;99934.03;;;28.39;36.45
24858;BME280;12935;50.782;6.074;2022-07-04T12:02:40;99931.13;;;28.17;36.08
24858;BME280;12935;50.782;6.074;2022-07-04T12:05:11;99930.09;;;28.14;35.64
24858;BME280;12935;50.782;6.074;2022-07-04T12:07:39;99936.66;;;28.00;37.04
24858;BME280;12935;50.782;6.074;2022-07-04T12:10:11;99935.84;;;28.53;35.70
24858;BME280;12935;50.782;6.074;2022-07-04T12:13:01;99938.34;;;28.35;35.41
24858;BME280;12935;50.782;6.074;2022-07-04T12:15:43;99932.38;;;29.03;36.61
24858;BME280;12935;50.782;6.074;2022-07-04T12:18:19;99930.03;;;28.74;34.57
24858;BME280;12935;50.782;6.074;2022-07-04T12:20:46;99929.06;;;28.17;35.65
24858;BME280;12935;50.782;6.074;2022-07-04T12:23:12;99933.53;;;27.92;36.12
24858;BME280;12935;50.782;6.074;2022-07-04T12:25:38;99927.78;;;28.13;36.34
24858;BME280;12935;50.782;6.074;2022-07-04T12:28:13;99926.16;;;28.54;35.32
24858;BME280;12935;50.782;6.074;2022-07-04T12:30:54;99922.22;;;27.76;36.18
24858;BME280;12935;50.782;6.074;2022-07-04T12:33:25;99929.97;;;26.46;37.57
24858;BME280;12935;50.782;6.074;2022-07-04T12:35:51;99920.88;;;25.90;39.17
24858;BME280;12935;50.782;6.074;2022-07-04T12:38:20;99928.97;;;25.38;39.42
24858;BME280;12935;50.782;6.074;2022-07-04T12:41:05;99921.84;;;25.37;40.38
24858;BME280;12935;50.782;6.074;2022-07-04T12:48:52;99909.22;;;28.32;36.99
24858;BME280;12935;50.782;6.074;2022-07-04T12:53:46;99915.22;;;27.60;36.05
24858;BME280;12935;50.782;6.074;2022-07-04T12:56:32;99916.31;;;26.79;36.71
24858;BME280;12935;50.782;6.074;2022-07-04T12:58:58;99902.53;;;26.30;38.62
24858;BME280;12935;50.782;6.074;2022-07-04T13:01:25;99912.34;;;27.17;36.58
24858;BME280;12935;50.782;6.074;2022-07-04T13:03:50;99908.63;;;26.74;38.14
24858;BME280;12935;50.782;6.074;2022-07-04T13:06:15;99911.25;;;26.83;37.48
24858;BME280;12935;50.782;6.074;2022-07-04T13:08:41;99909.03;;;26.93;36.39
24858;BME280;12935;50.782;6.074;2022-07-04T13:11:06;99916.41;;;27.16;35.70
24858;BME280;12935;50.782;6.074;2022-07-04T13:13:50;99909.31;;;27.21;35.20
24858;BME280;12935;50.782;6.074;2022-07-04T13:16:15;99910.78;;;27.48;36.23
24858;BME280;12935;50.782;6.074;2022-07-04T13:18:40;99913.53;;;27.74;35.41
24858;BME280;12935;50.782;6.074;2022-07-04T13:21:06;99910.88;;;27.59;34.78
24858;BME280;12935;50.782;6.074;2022-07-04T13:23:31;99904.44;;;28.60;33.51
24858;BME280;12935;50.782;6.074;2022-07-04T13:25:57;99901.94;;;29.57;32.85
24858;BME280;12935;50.782;6.074;2022-07-04T13:28:22;99906.88;;;31.87;29.41
24858;BME280;12935;50.782;6.074;2022-07-04T13:30:47;99908.47;;;33.72;26.29